Time,TemperatureF,DewpointF,PressureIn,WindDirection,WindDirectionDegrees,WindSpeedMPH,WindSpeedGustMPH,Humidity,HourlyPrecipIn,Conditions,Clouds,dailyrainin,SolarRadiationWatts/m^2,SoftwareType,DateUTC
2013-06-10 00:12:00,74.0,73.0,-100.00,South,177,2.0,4.0,98,0.00,,,0.20,0.000000,,2013-06-10 05:12:00,
2013-06-10 00:22:00,74.0,73.0,-100.00,South,177,2.0,4.0,98,0.00,,,0.20,0.000000,,2013-06-10 05:22:00,
2013-06-10 00:32:00,74.0,73.0,-100.00,South,177,2.0,4.0,98,0.00,,,0.20,0.000000,,2013-06-10 05:32:00,
2013-06-10 00:42:00,74.0,73.0,-100.00,South,177,2.0,4.0,98,0.00,,,0.20,0.000000,,2013-06-10 05:42:00,
2013-06-10 00:51:00,74.0,73.0,-100.00,SSE,154,1.0,6.0,98,0.00,,,0.20,0.000000,,2013-06-10 05:51:00,
2013-06-10 01:12:00,74.0,73.0,-100.00,SSE,154,1.0,6.0,98,0.00,,,0.20,0.000000,,2013-06-10 06:12:00,
2013-06-10 01:22:00,74.0,73.0,-100.00,SSE,154,1.0,6.0,98,0.00,,,0.20,0.000000,,2013-06-10 06:22:00,
2013-06-10 01:32:00,74.0,73.0,-100.00,SSE,154,1.0,6.0,98,0.00,,,0.20,0.000000,,2013-06-10 06:32:00,
2013-06-10 01:42:00,74.0,73.0,-100.00,SSE,154,1.0,6.0,98,0.00,,,0.20,0.000000,,2013-06-10 06:42:00,
2013-06-10 01:51:00,78.0,75.0,-100.00,SSW,194,4.0,9.0,91,0.00,,,0.20,0.000000,,2013-06-10 06:51:00,
2013-06-10 02:12:00,78.0,75.0,-100.00,SSW,194,4.0,9.0,91,0.00,,,0.20,0.000000,,2013-06-10 07:12:00,
2013-06-10 02:22:00,78.0,75.0,-100.00,SSW,194,4.0,9.0,91,0.00,,,0.20,0.000000,,2013-06-10 07:22:00,
2013-06-10 02:32:00,78.0,75.0,-100.00,SSW,194,4.0,9.0,91,0.00,,,0.20,0.000000,,2013-06-10 07:32:00,
2013-06-10 02:42:00,78.0,75.0,-100.00,SSW,194,4.0,9.0,91,0.00,,,0.20,0.000000,,2013-06-10 07:42:00,
2013-06-10 02:51:00,78.0,75.0,-100.00,WSW,250,2.0,9.0,92,0.00,,,0.20,0.000000,,2013-06-10 07:51:00,
2013-06-10 03:12:00,78.0,75.0,-100.00,WSW,250,2.0,9.0,92,0.00,,,0.20,0.000000,,2013-06-10 08:12:00,
2013-06-10 03:22:00,78.0,75.0,-100.00,WSW,250,2.0,9.0,92,0.00,,,0.20,0.000000,,2013-06-10 08:22:00,
2013-06-10 03:32:00,78.0,75.0,-100.00,WSW,250,2.0,9.0,92,0.00,,,0.20,0.000000,,2013-06-10 08:32:00,
2013-06-10 03:42:00,78.0,75.0,-100.00,WSW,250,2.0,9.0,92,0.00,,,0.20,0.000000,,2013-06-10 08:42:00,
2013-06-10 03:51:00,78.0,76.0,-100.00,South,190,2.0,5.0,94,0.00,,,0.20,0.000000,,2013-06-10 08:51:00,
2013-06-10 04:12:00,78.0,76.0,-100.00,South,190,2.0,5.0,94,0.00,,,0.20,0.000000,,2013-06-10 09:12:00,
2013-06-10 04:22:00,78.0,76.0,-100.00,South,190,2.0,5.0,94,0.00,,,0.20,0.000000,,2013-06-10 09:22:00,
2013-06-10 04:32:00,78.0,76.0,-100.00,South,190,2.0,5.0,94,0.00,,,0.20,0.000000,,2013-06-10 09:32:00,
2013-06-10 04:42:00,78.0,76.0,-100.00,South,190,2.0,5.0,94,0.00,,,0.20,0.000000,,2013-06-10 09:42:00,
2013-06-10 04:51:00,78.0,77.0,-100.00,SSW,200,1.0,5.0,96,0.00,,,0.20,0.000000,,2013-06-10 09:51:00,
2013-06-10 05:12:00,78.0,77.0,-100.00,SSW,200,1.0,5.0,96,0.00,,,0.20,0.000000,,2013-06-10 10:12:00,
2013-06-10 05:22:00,78.0,77.0,-100.00,SSW,200,1.0,5.0,96,0.00,,,0.20,0.000000,,2013-06-10 10:22:00,
2013-06-10 05:33:00,78.0,77.0,-100.00,SSW,200,1.0,5.0,96,0.00,,,0.20,0.000000,,2013-06-10 10:33:00,
2013-06-10 05:42:00,78.0,77.0,-100.00,SSW,200,1.0,5.0,96,0.00,,,0.20,0.000000,,2013-06-10 10:42:00,
2013-06-10 05:51:00,77.0,76.0,-100.00,South,186,0.0,3.0,97,0.00,,,0.20,0.000000,,2013-06-10 10:51:00,
2013-06-10 06:12:00,77.0,76.0,-100.00,South,186,0.0,3.0,97,0.00,,,0.20,0.000000,,2013-06-10 11:12:00,
2013-06-10 06:22:00,77.0,76.0,-100.00,South,186,0.0,3.0,97,0.00,,,0.20,0.000000,,2013-06-10 11:22:00,
2013-06-10 06:32:00,77.0,76.0,-100.00,South,186,0.0,3.0,97,0.00,,,0.20,0.000000,,2013-06-10 11:32:00,
2013-06-10 06:42:00,77.0,76.0,-100.00,South,186,0.0,3.0,97,0.00,,,0.20,0.000000,,2013-06-10 11:42:00,
2013-06-10 08:51:00,72.0,72.0,-100.00,South,179,3.0,6.0,100,-99.99,,,0.97,4.000000,,2013-06-10 13:51:00,
2013-06-10 09:12:00,72.0,72.0,-100.00,South,179,3.0,6.0,100,-99.99,,,0.97,4.000000,,2013-06-10 14:12:00,
2013-06-10 09:22:00,72.0,72.0,-100.00,South,179,3.0,6.0,100,-99.99,,,0.97,4.000000,,2013-06-10 14:22:00,
2013-06-10 09:32:00,72.0,72.0,-100.00,South,179,3.0,6.0,100,-99.99,,,0.97,4.000000,,2013-06-10 14:32:00,
2013-06-10 09:42:00,72.0,72.0,-100.00,South,179,3.0,6.0,100,-99.99,,,0.97,4.000000,,2013-06-10 14:42:00,
2013-06-10 09:51:00,73.0,73.0,-100.00,SSE,165,3.0,6.0,100,0.05,,,1.02,66.000000,,2013-06-10 14:51:00,
2013-06-10 10:12:00,73.0,73.0,-100.00,SSE,165,3.0,6.0,100,0.05,,,1.02,66.000000,,2013-06-10 15:12:00,
2013-06-10 10:22:00,73.0,73.0,-100.00,SSE,165,3.0,6.0,100,0.05,,,1.02,66.000000,,2013-06-10 15:22:00,
2013-06-10 10:33:00,73.0,73.0,-100.00,SSE,165,3.0,6.0,100,0.05,,,1.02,66.000000,,2013-06-10 15:33:00,
2013-06-10 10:43:00,73.0,73.0,-100.00,SSE,165,3.0,6.0,100,0.05,,,1.02,66.000000,,2013-06-10 15:43:00,
2013-06-10 10:51:00,78.0,74.0,-100.00,SSW,213,4.0,7.0,88,0.00,,,1.02,334.000000,,2013-06-10 15:51:00,
2013-06-10 11:13:00,78.0,74.0,-100.00,SSW,213,4.0,7.0,88,0.00,,,1.02,334.000000,,2013-06-10 16:13:00,
2013-06-10 11:23:00,78.0,74.0,-100.00,SSW,213,4.0,7.0,88,0.00,,,1.02,334.000000,,2013-06-10 16:23:00,
2013-06-10 11:33:00,78.0,74.0,-100.00,SSW,213,4.0,7.0,88,0.00,,,1.02,334.000000,,2013-06-10 16:33:00,
2013-06-10 11:43:00,78.0,74.0,-100.00,SSW,213,4.0,7.0,88,0.00,,,1.02,334.000000,,2013-06-10 16:43:00,
2013-06-10 11:51:00,81.0,75.0,-100.00,South,187,3.0,7.0,82,0.00,,,1.02,360.000000,,2013-06-10 16:51:00,
2013-06-10 12:14:00,81.0,75.0,-100.00,South,187,3.0,7.0,82,0.00,,,1.02,360.000000,,2013-06-10 17:14:00,
2013-06-10 12:27:00,81.0,75.0,-100.00,South,187,3.0,7.0,82,0.00,,,1.02,360.000000,,2013-06-10 17:27:00,
2013-06-10 12:38:00,81.0,75.0,-100.00,South,187,3.0,7.0,82,0.00,,,1.02,360.000000,,2013-06-10 17:38:00,
2013-06-10 12:48:00,81.0,75.0,-100.00,South,187,3.0,7.0,82,0.00,,,1.02,360.000000,,2013-06-10 17:48:00,
2013-06-10 12:51:00,84.0,75.0,-100.00,SSE,150,5.0,9.0,74,0.00,,,1.02,668.000000,,2013-06-10 17:51:00,
2013-06-10 13:14:00,84.0,75.0,-100.00,SSE,150,5.0,9.0,74,0.00,,,1.02,668.000000,,2013-06-10 18:14:00,
2013-06-10 13:25:00,84.0,75.0,-100.00,SSE,150,5.0,9.0,74,0.00,,,1.02,668.000000,,2013-06-10 18:25:00,
2013-06-10 13:35:00,84.0,75.0,-100.00,SSE,150,5.0,9.0,74,0.00,,,1.02,668.000000,,2013-06-10 18:35:00,
2013-06-10 13:48:00,84.0,75.0,-100.00,SSE,150,5.0,9.0,74,0.00,,,1.02,668.000000,,2013-06-10 18:48:00,
2013-06-10 13:51:00,83.0,74.0,-100.00,South,190,4.0,12.0,74,0.00,,,1.00,484.000000,,2013-06-10 18:51:00,
2013-06-10 14:13:00,83.0,74.0,-100.00,South,190,4.0,12.0,74,0.00,,,1.00,484.000000,,2013-06-10 19:13:00,
2013-06-10 14:22:00,83.0,74.0,-100.00,South,190,4.0,12.0,74,0.00,,,1.00,484.000000,,2013-06-10 19:22:00,
2013-06-10 14:33:00,83.0,74.0,-100.00,South,190,4.0,12.0,74,0.00,,,1.00,484.000000,,2013-06-10 19:33:00,
2013-06-10 14:43:00,83.0,74.0,-100.00,South,190,4.0,12.0,74,0.00,,,1.00,484.000000,,2013-06-10 19:43:00,
2013-06-10 14:51:00,80.0,73.0,-100.00,NW,325,2.0,8.0,79,0.00,,,0.97,80.000000,,2013-06-10 19:51:00,
2013-06-10 15:12:00,80.0,73.0,-100.00,NW,325,2.0,8.0,79,0.00,,,0.97,80.000000,,2013-06-10 20:12:00,
2013-06-10 15:23:00,80.0,73.0,-100.00,NW,325,2.0,8.0,79,0.00,,,0.97,80.000000,,2013-06-10 20:23:00,
2013-06-10 15:32:00,80.0,73.0,-100.00,NW,325,2.0,8.0,79,0.00,,,0.97,80.000000,,2013-06-10 20:32:00,
2013-06-10 15:43:00,80.0,73.0,-100.00,NW,325,2.0,8.0,79,0.00,,,0.97,80.000000,,2013-06-10 20:43:00,
2013-06-10 15:51:00,83.0,73.0,-100.00,ENE,68,2.0,5.0,73,0.00,,,0.97,294.000000,,2013-06-10 20:51:00,
2013-06-10 16:12:00,83.0,73.0,-100.00,ENE,68,2.0,5.0,73,0.00,,,0.97,294.000000,,2013-06-10 21:12:00,
2013-06-10 16:22:00,83.0,73.0,-100.00,ENE,68,2.0,5.0,73,0.00,,,0.97,294.000000,,2013-06-10 21:22:00,
2013-06-10 16:33:00,83.0,73.0,-100.00,ENE,68,2.0,5.0,73,0.00,,,0.97,294.000000,,2013-06-10 21:33:00,
2013-06-10 16:43:00,83.0,73.0,-100.00,ENE,68,2.0,5.0,73,0.00,,,0.97,294.000000,,2013-06-10 21:43:00,
2013-06-10 16:51:00,82.0,72.0,-100.00,South,190,5.0,14.0,72,0.00,,,0.97,364.000000,,2013-06-10 21:51:00,
2013-06-10 17:13:00,82.0,72.0,-100.00,South,190,5.0,14.0,72,0.00,,,0.97,364.000000,,2013-06-10 22:13:00,
2013-06-10 17:22:00,82.0,72.0,-100.00,South,190,5.0,14.0,72,0.00,,,0.97,364.000000,,2013-06-10 22:22:00,
2013-06-10 17:33:00,82.0,72.0,-100.00,South,190,5.0,14.0,72,0.00,,,0.97,364.000000,,2013-06-10 22:33:00,
2013-06-10 17:42:00,82.0,72.0,-100.00,South,190,5.0,14.0,72,0.00,,,0.97,364.000000,,2013-06-10 22:42:00,
2013-06-10 17:51:00,83.0,71.0,-100.00,South,189,4.0,9.0,68,0.00,,,0.97,267.000000,,2013-06-10 22:51:00,
2013-06-10 18:12:00,83.0,71.0,-100.00,South,189,4.0,9.0,68,0.00,,,0.97,267.000000,,2013-06-10 23:12:00,
2013-06-10 18:22:00,83.0,71.0,-100.00,South,189,4.0,9.0,68,0.00,,,0.97,267.000000,,2013-06-10 23:22:00,
2013-06-10 18:32:00,83.0,71.0,-100.00,South,189,4.0,9.0,68,0.00,,,0.97,267.000000,,2013-06-10 23:32:00,
2013-06-10 18:42:00,83.0,71.0,-100.00,South,189,4.0,9.0,68,0.00,,,0.97,267.000000,,2013-06-10 23:42:00,
2013-06-10 18:51:00,83.0,75.0,-100.00,South,191,2.0,7.0,76,0.00,,,0.97,150.000000,,2013-06-10 23:51:00,
2013-06-10 19:12:00,83.0,75.0,-100.00,South,191,2.0,7.0,76,0.00,,,0.97,150.000000,,2013-06-11 00:12:00,
2013-06-10 19:22:00,83.0,75.0,-100.00,South,191,2.0,7.0,76,0.00,,,0.97,150.000000,,2013-06-11 00:22:00,
2013-06-10 19:32:00,83.0,75.0,-100.00,South,191,2.0,7.0,76,0.00,,,0.97,150.000000,,2013-06-11 00:32:00,
2013-06-10 19:42:00,83.0,75.0,-100.00,South,191,2.0,7.0,76,0.00,,,0.97,150.000000,,2013-06-11 00:42:00,
2013-06-10 19:51:00,79.0,75.0,-100.00,South,191,1.0,5.0,89,0.00,,,0.97,37.000000,,2013-06-11 00:51:00,
2013-06-10 20:12:00,79.0,75.0,-100.00,South,191,1.0,5.0,89,0.00,,,0.97,37.000000,,2013-06-11 01:12:00,
2013-06-10 20:22:00,79.0,75.0,-100.00,South,191,1.0,5.0,89,0.00,,,0.97,37.000000,,2013-06-11 01:22:00,
2013-06-10 20:32:00,79.0,75.0,-100.00,South,191,1.0,5.0,89,0.00,,,0.97,37.000000,,2013-06-11 01:32:00,
2013-06-10 20:42:00,79.0,75.0,-100.00,South,191,1.0,5.0,89,0.00,,,0.97,37.000000,,2013-06-11 01:42:00,
2013-06-10 20:51:00,77.0,76.0,-100.00,South,187,0.0,3.0,97,0.00,,,0.97,1.000000,,2013-06-11 01:51:00,
2013-06-10 21:12:00,77.0,76.0,-100.00,South,187,0.0,3.0,97,0.00,,,0.97,1.000000,,2013-06-11 02:12:00,
2013-06-10 21:22:00,77.0,76.0,-100.00,South,187,0.0,3.0,97,0.00,,,0.97,1.000000,,2013-06-11 02:22:00,
2013-06-10 21:32:00,77.0,76.0,-100.00,South,187,0.0,3.0,97,0.00,,,0.97,1.000000,,2013-06-11 02:32:00,
2013-06-10 21:42:00,77.0,76.0,-100.00,South,187,0.0,3.0,97,0.00,,,0.97,1.000000,,2013-06-11 02:42:00,
2013-06-10 21:51:00,76.0,76.0,-100.00,SSE,167,0.0,0.0,99,0.00,,,0.97,0.000000,,2013-06-11 02:51:00,
2013-06-10 22:13:00,76.0,76.0,-100.00,SSE,167,0.0,0.0,99,0.00,,,0.97,0.000000,,2013-06-11 03:13:00,
2013-06-10 22:22:00,76.0,76.0,-100.00,SSE,167,0.0,0.0,99,0.00,,,0.97,0.000000,,2013-06-11 03:22:00,
2013-06-10 22:32:00,76.0,76.0,-100.00,SSE,167,0.0,0.0,99,0.00,,,0.97,0.000000,,2013-06-11 03:32:00,
2013-06-10 22:43:00,76.0,76.0,-100.00,SSE,167,0.0,0.0,99,0.00,,,0.97,0.000000,,2013-06-11 03:43:00,
2013-06-10 22:51:00,77.0,77.0,-100.00,South,176,3.0,5.0,100,0.00,,,0.97,0.000000,,2013-06-11 03:51:00,
2013-06-10 23:12:00,77.0,77.0,-100.00,South,176,3.0,5.0,100,0.00,,,0.97,0.000000,,2013-06-11 04:12:00,
2013-06-10 23:23:00,77.0,77.0,-100.00,South,176,3.0,5.0,100,0.00,,,0.97,0.000000,,2013-06-11 04:23:00,
2013-06-10 23:33:00,77.0,77.0,-100.00,South,176,3.0,5.0,100,0.00,,,0.97,0.000000,,2013-06-11 04:33:00,
2013-06-10 23:42:00,77.0,77.0,-100.00,South,176,3.0,5.0,100,0.00,,,0.97,0.000000,,2013-06-11 04:42:00,
2013-06-10 23:51:00,79.0,78.0,-100.00,South,176,1.0,9.0,96,0.00,,,0.97,0.000000,,2013-06-11 04:51:00,